Terminal Aerodrome Forecast
Issued by NWS Grand Forks, ND

Home | Current Version | Previous Version | Graphics & Text | Print | Product List | Glossary On
Versions: 1 2 3 4 5 6 7 8 9 10 11 12 13 14 15 16 17 18
000
FTUS43 KFGF 302000 AAA
TAFGFK
TAF AMD
KGFK 302012Z 3020/3118 35020G27KT P6SM OVC035
     FM310100 36011KT P6SM SKC
     FM311600 17010KT P6SM SCT250=

USA.gov is the U.S. government's official web portal to all federal, state and local government web resources and services.